Time;durP1;ratioP1;P1;durP2;ratioP2;P2;SDS_P1;SDS_P2;PMS_P1;PMS_P2;Temp;Humidity;BMP_temperature;BMP_pressure;BME280_temperature;BME280_humidity;BME280_pressure;Samples;Min_cycle;Max_cycle;Signal;HPM_P1;HPM_P2
2022/12/15 00:40:08;;;;;;;;;;;21.50;34.00;;;;;;5008365;28;19920;-55
2022/12/15 00:42:33;;;;;;;;;;;21.30;34.50;;;;;;5010448;28;20381;-54
2022/12/15 00:44:59;;;;;;;;;;;21.00;34.50;;;;;;5058074;28;20340;-53
2022/12/15 00:47:25;;;;;;;;;;;20.90;34.80;;;;;;5062896;28;19912;-53
2022/12/15 01:22:42;;;;;;;;;;;21.10;34.20;;;;;;5021948;28;19965;-54
2022/12/15 01:25:07;;;;;;;;;;;21.20;34.10;;;;;;5017095;28;19918;-54
2022/12/15 01:27:34;;;;;;;;;;;21.20;34.10;;;;;;5025080;28;22299;-54
2022/12/15 01:30:00;;;;;;;;;;;21.30;34.00;;;;;;5076004;28;19998;-54
2022/12/15 01:32:26;;;;;;;;;;;21.20;34.00;;;;;;5053426;28;20007;-54
2022/12/15 01:34:52;;;;;;;;;;;21.20;34.10;;;;;;5080328;28;20378;-54
2022/12/15 01:37:17;;;;;;;;;;;21.20;34.10;;;;;;5043638;28;20008;-54
2022/12/15 01:42:27;;;;;;;;;;;21.10;34.30;;;;;;5019014;28;19935;-54
2022/12/15 01:44:52;;;;;;;;;;;21.00;34.30;;;;;;5006660;28;19922;-53
2022/12/15 01:47:20;;;;;;;;;;;20.90;34.20;;;;;;5010199;28;20373;-54
2022/12/15 01:49:46;;;;;;;;;;;20.90;34.40;;;;;;5019813;28;19920;-54
2022/12/15 01:52:12;;;;;;;;;;;20.80;34.60;;;;;;5065053;28;19939;-54
2022/12/15 01:54:50;;;;;;;;;;;20.70;34.80;;;;;;5016918;28;19952;-54
2022/12/15 01:57:17;;;;;;;;;;;20.60;34.80;;;;;;4984477;28;19960;-54
2022/12/15 01:59:45;;;;;;;;;;;20.50;34.90;;;;;;5011263;28;20391;-54
2022/12/15 02:02:11;;;;;;;;;;;20.50;35.00;;;;;;5023874;28;20012;-55
2022/12/15 02:04:37;;;;;;;;;;;20.60;35.60;;;;;;4989118;28;19970;-53
2022/12/15 02:07:03;;;;;;;;;;;20.70;34.80;;;;;;4993213;28;19917;-54
2022/12/15 02:09:28;;;;;;;;;;;20.70;34.60;;;;;;5011656;28;19953;-54
2022/12/15 02:12:00;;;;;;;;;;;20.80;34.30;;;;;;5002660;28;19927;-53
2022/12/15 02:14:38;;;;;;;;;;;21.00;34.20;;;;;;5016004;28;19965;-53
2022/12/15 02:17:16;;;;;;;;;;;21.10;33.80;;;;;;4991713;28;20289;-54
2022/12/15 02:19:57;;;;;;;;;;;21.30;33.60;;;;;;4991272;28;19925;-55
2022/12/15 02:22:29;;;;;;;;;;;21.40;33.40;;;;;;4993896;28;19952;-52
2022/12/15 02:25:10;;;;;;;;;;;21.40;33.50;;;;;;4990090;28;19922;-54
2022/12/15 02:27:35;;;;;;;;;;;21.40;33.50;;;;;;5017548;28;19913;-54
2022/12/15 02:30:07;;;;;;;;;;;21.30;33.70;;;;;;5036444;28;19957;-54
2022/12/15 02:32:42;;;;;;;;;;;21.20;33.70;;;;;;5033414;28;19912;-54
2022/12/15 02:35:14;;;;;;;;;;;21.00;34.00;;;;;;5000374;28;19960;-54
2022/12/15 02:37:39;;;;;;;;;;;20.80;34.10;;;;;;4989462;28;19914;-54
2022/12/15 02:40:05;;;;;;;;;;;20.70;34.50;;;;;;5036844;28;20307;-53
2022/12/15 02:42:31;;;;;;;;;;;20.50;34.50;;;;;;5017143;28;19913;-53
2022/12/15 02:45:01;;;;;;;;;;;20.40;34.90;;;;;;4995014;28;19921;-54
2022/12/15 02:47:30;;;;;;;;;;;20.30;35.10;;;;;;4990494;28;20393;-54
2022/12/15 02:50:05;;;;;;;;;;;20.30;35.20;;;;;;5024705;28;19916;-55
2022/12/15 02:52:36;;;;;;;;;;;20.20;35.10;;;;;;5026610;28;19912;-54
2022/12/15 02:55:13;;;;;;;;;;;20.30;35.10;;;;;;5066232;28;19913;-54
2022/12/15 02:57:38;;;;;;;;;;;20.40;34.90;;;;;;4999452;28;19918;-53
2022/12/15 03:00:05;;;;;;;;;;;20.50;34.70;;;;;;5035263;28;19967;-54
2022/12/15 03:02:31;;;;;;;;;;;20.60;34.20;;;;;;5045242;28;19952;-54
2022/12/15 03:04:56;;;;;;;;;;;20.70;34.00;;;;;;5070364;28;19963;-52
2022/12/15 03:07:22;;;;;;;;;;;20.70;34.00;;;;;;4996092;28;19949;-54
2022/12/15 03:09:47;;;;;;;;;;;20.70;34.00;;;;;;5048228;28;19916;-54
2022/12/15 03:12:13;;;;;;;;;;;20.60;33.90;;;;;;5051576;28;19924;-54
2022/12/15 03:14:38;;;;;;;;;;;20.60;34.00;;;;;;5015662;28;20378;-55
2022/12/15 03:17:06;;;;;;;;;;;20.70;34.00;;;;;;5042163;28;20364;-54
2022/12/15 03:19:32;;;;;;;;;;;20.80;33.90;;;;;;5018943;28;20300;-54
2022/12/15 03:21:57;;;;;;;;;;;20.90;33.60;;;;;;5009692;28;19928;-54
2022/12/15 03:24:22;;;;;;;;;;;21.10;33.50;;;;;;5013751;28;19987;-54
2022/12/15 03:26:48;;;;;;;;;;;21.10;33.30;;;;;;5028998;28;19912;-53
2022/12/15 03:29:15;;;;;;;;;;;21.20;33.10;;;;;;5027176;28;19917;-53
2022/12/15 03:31:41;;;;;;;;;;;21.30;33.20;;;;;;5023301;28;19912;-53
2022/12/15 03:34:06;;;;;;;;;;;21.30;33.10;;;;;;5078449;28;19932;-55
2022/12/15 03:36:32;;;;;;;;;;;21.30;33.10;;;;;;5008584;28;19917;-54
2022/12/15 03:38:58;;;;;;;;;;;21.30;33.20;;;;;;5010297;28;19940;-54
2022/12/15 03:41:23;;;;;;;;;;;21.20;33.40;;;;;;5011277;28;20353;-53
2022/12/15 03:43:49;;;;;;;;;;;21.10;33.90;;;;;;5027731;28;19910;-54
2022/12/15 03:46:14;;;;;;;;;;;21.00;33.60;;;;;;5009885;28;19913;-54
2022/12/15 03:48:40;;;;;;;;;;;20.90;33.80;;;;;;5045108;28;20377;-54
2022/12/15 03:51:05;;;;;;;;;;;20.90;33.80;;;;;;4989307;28;20296;-54
2022/12/15 03:53:31;;;;;;;;;;;20.70;34.00;;;;;;5080251;28;19912;-54
2022/12/15 03:55:56;;;;;;;;;;;20.70;34.00;;;;;;5063982;28;20436;-54
2022/12/15 03:58:21;;;;;;;;;;;20.70;34.00;;;;;;5011629;28;20627;-53
2022/12/15 04:00:47;;;;;;;;;;;20.70;34.10;;;;;;5008980;28;20285;-54
2022/12/15 04:03:12;;;;;;;;;;;20.70;34.00;;;;;;5069691;28;20269;-54
2022/12/15 04:05:38;;;;;;;;;;;20.80;34.10;;;;;;5032610;28;20008;-53
2022/12/15 04:08:03;;;;;;;;;;;20.80;33.80;;;;;;5040601;28;19917;-54
2022/12/15 04:10:30;;;;;;;;;;;20.90;33.50;;;;;;5010608;28;19937;-54
2022/12/15 04:12:56;;;;;;;;;;;21.00;33.40;;;;;;5023223;28;19920;-53
2022/12/15 04:15:21;;;;;;;;;;;21.20;33.20;;;;;;5021524;28;19959;-54
2022/12/15 04:17:47;;;;;;;;;;;21.30;32.90;;;;;;5056868;28;20081;-53
2022/12/15 04:20:12;;;;;;;;;;;21.30;32.90;;;;;;5014135;28;20319;-54
2022/12/15 04:22:42;;;;;;;;;;;21.30;33.10;;;;;;5061085;28;20471;-54
2022/12/15 05:33:38;;;;;;;;;;;20.70;33.70;;;;;;5021877;28;19924;-54
2022/12/15 05:36:03;;;;;;;;;;;20.60;33.90;;;;;;5034350;28;20327;-54
2022/12/15 05:38:29;;;;;;;;;;;20.60;33.90;;;;;;5024284;28;20278;-54
2022/12/15 05:40:57;;;;;;;;;;;20.50;33.90;;;;;;5051236;28;20003;-54
2022/12/15 05:43:23;;;;;;;;;;;20.50;33.90;;;;;;5057157;28;19917;-54
2022/12/15 05:45:48;;;;;;;;;;;20.50;33.90;;;;;;5046032;28;20006;-54
2022/12/15 05:48:13;;;;;;;;;;;20.50;33.90;;;;;;5066435;28;19917;-55
2022/12/15 05:50:39;;;;;;;;;;;20.60;33.90;;;;;;5041512;28;19974;-54
2022/12/15 05:53:04;;;;;;;;;;;20.70;33.70;;;;;;5034382;28;19908;-53
2022/12/15 05:55:30;;;;;;;;;;;20.80;33.40;;;;;;5067054;28;19934;-53
2022/12/15 05:57:55;;;;;;;;;;;20.90;33.10;;;;;;5089722;28;20257;-53
2022/12/15 06:00:21;;;;;;;;;;;21.10;33.00;;;;;;5037801;28;19935;-54
2022/12/15 06:02:46;;;;;;;;;;;21.20;32.80;;;;;;5089880;28;19908;-54
2022/12/15 06:05:12;;;;;;;;;;;21.30;32.50;;;;;;5064344;28;19960;-53
2022/12/15 06:07:37;;;;;;;;;;;21.30;32.50;;;;;;5024820;28;19975;-53
2022/12/15 06:10:03;;;;;;;;;;;21.30;32.60;;;;;;5038200;28;19913;-55
2022/12/15 06:12:29;;;;;;;;;;;21.20;32.60;;;;;;5076783;28;19913;-54
2022/12/15 06:14:54;;;;;;;;;;;21.20;32.70;;;;;;5079259;28;19940;-53
2022/12/15 06:17:19;;;;;;;;;;;21.10;32.80;;;;;;5079488;28;19944;-53
2022/12/15 06:19:45;;;;;;;;;;;20.90;33.00;;;;;;5040996;28;20000;-54
2022/12/15 06:22:10;;;;;;;;;;;20.80;33.80;;;;;;5078467;28;19982;-54
2022/12/15 06:24:36;;;;;;;;;;;20.70;33.40;;;;;;4975145;28;19921;-54
2022/12/15 06:27:02;;;;;;;;;;;20.70;33.50;;;;;;5010040;28;19939;-55
2022/12/15 06:29:27;;;;;;;;;;;20.60;34.30;;;;;;5042381;28;19918;-55
2022/12/15 06:31:53;;;;;;;;;;;20.60;33.60;;;;;;4991059;28;19961;-54
2022/12/15 06:34:18;;;;;;;;;;;20.60;33.80;;;;;;5007598;28;19914;-53
2022/12/15 06:36:44;;;;;;;;;;;20.60;33.80;;;;;;5026410;28;20362;-54
2022/12/15 06:39:10;;;;;;;;;;;20.60;33.70;;;;;;5019434;28;20361;-54
2022/12/15 06:41:35;;;;;;;;;;;20.70;33.70;;;;;;5045633;28;19914;-55
2022/12/15 06:44:01;;;;;;;;;;;20.80;33.40;;;;;;5039105;28;19914;-54
2022/12/15 06:46:27;;;;;;;;;;;20.80;33.30;;;;;;5015209;28;19913;-54
2022/12/15 06:48:52;;;;;;;;;;;20.90;33.10;;;;;;5008947;28;20289;-54
2022/12/15 06:51:18;;;;;;;;;;;21.00;33.00;;;;;;5018270;28;20008;-53
2022/12/15 06:53:47;;;;;;;;;;;21.10;32.90;;;;;;5028032;28;19923;-55
2022/12/15 06:56:32;;;;;;;;;;;21.10;32.70;;;;;;5032017;28;19916;-54
2022/12/15 06:58:58;;;;;;;;;;;21.20;32.80;;;;;;5010256;28;19962;-55
2022/12/15 07:01:23;;;;;;;;;;;21.20;32.70;;;;;;5023120;28;20384;-54
2022/12/15 07:03:50;;;;;;;;;;;21.20;32.70;;;;;;5006899;28;19913;-54
2022/12/15 07:06:16;;;;;;;;;;;21.10;32.60;;;;;;5008598;28;19921;-54
2022/12/15 07:08:42;;;;;;;;;;;21.10;32.70;;;;;;5009640;28;19965;-55
2022/12/15 07:11:09;;;;;;;;;;;21.10;32.90;;;;;;5046714;28;19915;-55
2022/12/15 07:13:34;;;;;;;;;;;21.00;33.00;;;;;;5023777;28;20016;-54
2022/12/15 07:16:00;;;;;;;;;;;21.00;33.20;;;;;;5034089;28;20050;-54
2022/12/15 07:18:26;;;;;;;;;;;20.90;33.20;;;;;;5066846;28;19914;-54
2022/12/15 07:20:51;;;;;;;;;;;20.80;33.30;;;;;;5012350;28;19947;-54
2022/12/15 07:23:16;;;;;;;;;;;20.80;33.50;;;;;;5052005;28;19914;-54
2022/12/15 07:25:42;;;;;;;;;;;20.70;33.60;;;;;;5023441;28;19950;-54
2022/12/15 07:28:07;;;;;;;;;;;20.60;33.90;;;;;;5011599;28;20297;-54
2022/12/15 07:30:33;;;;;;;;;;;20.60;33.90;;;;;;5005948;28;20281;-53
2022/12/15 07:32:58;;;;;;;;;;;20.50;33.90;;;;;;5010139;28;19913;-54
2022/12/15 07:35:24;;;;;;;;;;;20.60;33.90;;;;;;4990493;28;20375;-53
2022/12/15 07:37:49;;;;;;;;;;;20.60;33.80;;;;;;5044164;28;19912;-54
2022/12/15 07:40:15;;;;;;;;;;;20.70;33.40;;;;;;5088872;28;19919;-54
2022/12/15 07:42:40;;;;;;;;;;;20.80;33.40;;;;;;5062742;28;19967;-54
2022/12/15 07:45:06;;;;;;;;;;;20.90;33.20;;;;;;5016189;28;20704;-54
2022/12/15 07:47:31;;;;;;;;;;;21.00;33.10;;;;;;5002327;28;20004;-55
2022/12/15 07:49:57;;;;;;;;;;;21.20;33.00;;;;;;5012334;28;19924;-56
2022/12/15 07:52:22;;;;;;;;;;;21.60;32.30;;;;;;5026905;28;19916;-54
2022/12/15 07:54:48;;;;;;;;;;;22.00;31.80;;;;;;5069761;28;20330;-52
2022/12/15 07:57:15;;;;;;;;;;;22.40;31.40;;;;;;5050955;28;19916;-53
2022/12/15 07:59:40;;;;;;;;;;;22.60;31.00;;;;;;5018252;28;19913;-54
2022/12/15 08:02:06;;;;;;;;;;;22.70;31.40;;;;;;5007416;28;19923;-54
2022/12/15 08:04:31;;;;;;;;;;;22.80;30.60;;;;;;5006787;28;19968;-53
2022/12/15 08:06:57;;;;;;;;;;;22.80;30.60;;;;;;5032159;28;20408;-54
2022/12/15 08:09:22;;;;;;;;;;;22.90;30.70;;;;;;5037948;28;20315;-55
2022/12/15 08:11:47;;;;;;;;;;;23.00;30.70;;;;;;5008536;28;19954;-52
2022/12/15 08:14:14;;;;;;;;;;;23.00;31.00;;;;;;5008394;28;19967;-54
2022/12/15 08:16:39;;;;;;;;;;;23.10;31.20;;;;;;5015592;28;20305;-54
2022/12/15 08:19:05;;;;;;;;;;;23.10;31.60;;;;;;5016497;28;19921;-54
2022/12/15 08:21:31;;;;;;;;;;;23.10;31.70;;;;;;5005153;28;19917;-54
2022/12/15 08:23:56;;;;;;;;;;;23.20;31.70;;;;;;5025512;28;19913;-54
2022/12/15 08:26:22;;;;;;;;;;;23.20;32.50;;;;;;5036939;28;19926;-56
2022/12/15 08:28:47;;;;;;;;;;;23.30;31.90;;;;;;5002137;28;19927;-53
2022/12/15 08:31:15;;;;;;;;;;;23.30;31.60;;;;;;4999962;28;20005;-53
2022/12/15 08:33:40;;;;;;;;;;;23.30;31.50;;;;;;4993460;28;19944;-55
2022/12/15 08:36:07;;;;;;;;;;;23.40;31.70;;;;;;5006123;28;20389;-53
2022/12/15 08:38:33;;;;;;;;;;;23.40;31.60;;;;;;5007641;28;19945;-55
2022/12/15 08:41:05;;;;;;;;;;;23.40;31.50;;;;;;5013744;28;19921;-54
2022/12/15 08:43:30;;;;;;;;;;;23.40;31.50;;;;;;5018137;28;19914;-55
2022/12/15 08:45:56;;;;;;;;;;;23.40;31.60;;;;;;5041824;28;20349;-53
2022/12/15 08:48:21;;;;;;;;;;;23.40;31.60;;;;;;5012127;28;20280;-53
2022/12/15 08:50:47;;;;;;;;;;;23.40;31.60;;;;;;5010864;28;19918;-53
2022/12/15 08:53:12;;;;;;;;;;;23.50;31.80;;;;;;5016042;28;20004;-54
2022/12/15 08:55:38;;;;;;;;;;;23.40;31.60;;;;;;5020436;28;19914;-53
2022/12/15 08:58:03;;;;;;;;;;;23.50;31.50;;;;;;5020371;28;19918;-54
2022/12/15 09:00:29;;;;;;;;;;;23.50;31.60;;;;;;4983977;28;20008;-55
2022/12/15 09:02:54;;;;;;;;;;;23.50;31.50;;;;;;5006095;28;20455;-53
2022/12/15 09:05:20;;;;;;;;;;;23.60;31.70;;;;;;5013466;28;19928;-53
2022/12/15 09:07:45;;;;;;;;;;;23.60;31.50;;;;;;5015873;28;20026;-52
2022/12/15 09:10:11;;;;;;;;;;;23.70;31.60;;;;;;5012832;28;19961;-53
2022/12/15 09:12:36;;;;;;;;;;;23.60;31.40;;;;;;5007471;28;19966;-53
2022/12/15 09:15:01;;;;;;;;;;;23.60;31.60;;;;;;5019728;28;19913;-55
2022/12/15 09:17:27;;;;;;;;;;;23.70;31.50;;;;;;5040966;28;20007;-53
2022/12/15 09:19:52;;;;;;;;;;;23.70;31.40;;;;;;5010463;28;19923;-53
2022/12/15 09:22:18;;;;;;;;;;;23.70;31.40;;;;;;5017947;28;19968;-55
2022/12/15 09:24:43;;;;;;;;;;;23.70;31.60;;;;;;5009631;28;20325;-54
2022/12/15 09:27:09;;;;;;;;;;;23.70;31.40;;;;;;5024973;28;19952;-54
2022/12/15 09:29:34;;;;;;;;;;;23.80;31.40;;;;;;5016846;28;19975;-54
2022/12/15 09:32:00;;;;;;;;;;;23.70;31.40;;;;;;5020012;28;19924;-54
2022/12/15 09:34:25;;;;;;;;;;;23.80;31.60;;;;;;5016527;28;20032;-53
2022/12/15 09:36:51;;;;;;;;;;;23.80;31.40;;;;;;5025185;28;20008;-54
2022/12/15 09:39:16;;;;;;;;;;;23.80;31.60;;;;;;5009771;28;19921;-53
2022/12/15 09:41:42;;;;;;;;;;;23.80;31.40;;;;;;5010774;28;19970;-55
2022/12/15 09:44:12;;;;;;;;;;;23.70;31.60;;;;;;5007256;28;19917;-53
2022/12/15 09:46:53;;;;;;;;;;;23.70;31.60;;;;;;5024430;28;20008;-54
2022/12/15 09:49:37;;;;;;;;;;;23.80;31.50;;;;;;4993043;28;19961;-53
2022/12/15 09:52:04;;;;;;;;;;;23.80;31.40;;;;;;5004470;28;20292;-53
2022/12/15 09:54:30;;;;;;;;;;;23.80;31.50;;;;;;4991744;28;19920;-54
2022/12/15 09:56:55;;;;;;;;;;;23.80;31.60;;;;;;4992914;28;19921;-53
2022/12/15 09:59:24;;;;;;;;;;;23.80;31.30;;;;;;4998585;28;19914;-54
2022/12/15 10:01:54;;;;;;;;;;;23.80;31.40;;;;;;5009097;28;19933;-54
2022/12/15 10:04:29;;;;;;;;;;;23.90;31.50;;;;;;4991455;28;19918;-54
2022/12/15 10:06:57;;;;;;;;;;;23.80;31.40;;;;;;5020361;28;20523;-54
2022/12/15 10:09:26;;;;;;;;;;;23.80;31.40;;;;;;5029903;28;19918;-54
2022/12/15 10:11:52;;;;;;;;;;;23.90;31.40;;;;;;4988480;28;19960;-55
2022/12/15 10:14:26;;;;;;;;;;;23.90;31.60;;;;;;5005840;28;20453;-54
2022/12/15 10:16:52;;;;;;;;;;;23.80;31.50;;;;;;5005800;28;19949;-54
2022/12/15 10:19:20;;;;;;;;;;;23.90;31.50;;;;;;5009274;28;20005;-53
2022/12/15 10:21:46;;;;;;;;;;;23.80;31.50;;;;;;5010179;28;19922;-54
2022/12/15 10:24:14;;;;;;;;;;;23.80;31.60;;;;;;5007367;28;19914;-53
2022/12/15 10:26:39;;;;;;;;;;;23.80;31.60;;;;;;4993475;28;20444;-54
2022/12/15 10:29:04;;;;;;;;;;;23.80;31.60;;;;;;4998144;28;20050;-53
2022/12/15 10:31:30;;;;;;;;;;;23.80;31.70;;;;;;5022302;28;19959;-55
2022/12/15 10:33:56;;;;;;;;;;;23.90;31.70;;;;;;5018223;28;19913;-54
2022/12/15 10:36:22;;;;;;;;;;;23.90;31.60;;;;;;4990944;28;19920;-54
2022/12/15 10:38:47;;;;;;;;;;;24.00;31.60;;;;;;5012788;28;19917;-55
2022/12/15 10:41:13;;;;;;;;;;;24.00;31.60;;;;;;5009230;28;19961;-55
2022/12/15 10:43:39;;;;;;;;;;;24.00;31.60;;;;;;5007600;28;19914;-56
2022/12/15 10:46:08;;;;;;;;;;;24.10;31.60;;;;;;5012479;28;19921;-55
2022/12/15 10:48:34;;;;;;;;;;;24.10;31.60;;;;;;5009242;28;20373;-53
2022/12/15 10:51:06;;;;;;;;;;;24.10;31.80;;;;;;5009189;28;19929;-53
2022/12/15 10:53:38;;;;;;;;;;;24.00;31.70;;;;;;5004300;28;19921;-54
2022/12/15 10:56:03;;;;;;;;;;;24.10;31.60;;;;;;4990601;28;19918;-54
2022/12/15 10:58:29;;;;;;;;;;;24.10;31.60;;;;;;4986313;28;19922;-54
2022/12/15 11:01:04;;;;;;;;;;;24.20;31.60;;;;;;5012369;28;19918;-54
2022/12/15 11:03:32;;;;;;;;;;;24.10;31.60;;;;;;5010066;28;20322;-53
2022/12/15 11:05:58;;;;;;;;;;;24.10;31.70;;;;;;4990571;28;19921;-55
2022/12/15 11:08:23;;;;;;;;;;;24.20;31.70;;;;;;5009781;28;20380;-53
2022/12/15 11:13:34;;;;;;;;;;;24.20;31.90;;;;;;5002854;28;19967;-55
2022/12/15 11:16:08;;;;;;;;;;;24.20;31.90;;;;;;5003522;28;19917;-55
2022/12/15 11:18:38;;;;;;;;;;;24.20;32.00;;;;;;5009150;28;20389;-55
2022/12/15 11:21:04;;;;;;;;;;;24.30;32.10;;;;;;5009598;28;19922;-55
2022/12/15 11:23:30;;;;;;;;;;;24.30;32.10;;;;;;4992634;28;19910;-55
2022/12/15 11:26:03;;;;;;;;;;;24.30;32.10;;;;;;5006652;28;19937;-55
2022/12/15 11:28:33;;;;;;;;;;;24.30;32.20;;;;;;5006202;28;20355;-55
2022/12/15 11:30:59;;;;;;;;;;;24.30;32.20;;;;;;4992664;28;19959;-54
2022/12/15 11:33:25;;;;;;;;;;;24.30;32.10;;;;;;5009820;28;19914;-55
2022/12/15 11:36:09;;;;;;;;;;;24.30;32.10;;;;;;5002917;28;19921;-54
2022/12/15 11:38:46;;;;;;;;;;;24.40;32.10;;;;;;4998469;28;19924;-54
2022/12/15 11:41:15;;;;;;;;;;;24.40;32.10;;;;;;5005559;28;20037;-54
2022/12/15 11:43:50;;;;;;;;;;;24.40;32.10;;;;;;5005384;28;19921;-54
2022/12/15 11:46:18;;;;;;;;;;;24.30;32.10;;;;;;5008936;28;19921;-53
2022/12/15 11:49:02;;;;;;;;;;;24.40;32.00;;;;;;5007966;28;19956;-53
2022/12/15 11:51:33;;;;;;;;;;;24.40;32.00;;;;;;5006838;28;19948;-54
2022/12/15 11:54:02;;;;;;;;;;;24.50;32.10;;;;;;5009497;28;19921;-55
2022/12/15 11:56:42;;;;;;;;;;;24.40;32.20;;;;;;5027428;28;19920;-54
2022/12/15 11:59:25;;;;;;;;;;;24.40;32.20;;;;;;4993848;28;19932;-55
2022/12/15 12:02:09;;;;;;;;;;;24.50;32.20;;;;;;5007430;28;19943;-54
2022/12/15 12:04:41;;;;;;;;;;;24.50;32.30;;;;;;5011237;28;19925;-54
2022/12/15 12:07:27;;;;;;;;;;;24.50;32.30;;;;;;5026270;28;19915;-55
2022/12/15 12:09:52;;;;;;;;;;;24.50;32.30;;;;;;5026324;28;19924;-54
2022/12/15 12:12:25;;;;;;;;;;;24.50;32.90;;;;;;5003766;28;19917;-53
2022/12/15 12:15:02;;;;;;;;;;;24.50;32.20;;;;;;5008607;28;19928;-54
2022/12/15 12:17:30;;;;;;;;;;;24.50;32.20;;;;;;5013147;28;20713;-53
2022/12/15 12:19:57;;;;;;;;;;;24.50;32.40;;;;;;5017993;28;19974;-54
2022/12/15 12:22:36;;;;;;;;;;;24.50;32.30;;;;;;5004506;28;19921;-54
2022/12/15 12:25:22;;;;;;;;;;;24.50;32.10;;;;;;5019091;28;19921;-54
2022/12/15 12:27:57;;;;;;;;;;;24.60;32.20;;;;;;5028908;28;20360;-55
2022/12/15 12:30:24;;;;;;;;;;;24.60;32.20;;;;;;4986252;28;19918;-55
2022/12/15 12:32:53;;;;;;;;;;;24.50;32.10;;;;;;5007450;28;19913;-54
2022/12/15 12:35:18;;;;;;;;;;;24.60;32.80;;;;;;5063311;28;20292;-55
2022/12/15 12:37:48;;;;;;;;;;;24.60;31.90;;;;;;5034366;28;19916;-53
2022/12/15 12:40:18;;;;;;;;;;;24.70;32.00;;;;;;4989705;28;19910;-53
2022/12/15 12:42:47;;;;;;;;;;;24.70;32.10;;;;;;4999909;28;19913;-55
2022/12/15 12:45:12;;;;;;;;;;;24.70;31.90;;;;;;5009701;28;20008;-54
2022/12/15 12:47:39;;;;;;;;;;;24.70;32.20;;;;;;4989439;28;20012;-55
2022/12/15 12:50:15;;;;;;;;;;;24.70;32.00;;;;;;4996766;28;20001;-54
2022/12/15 12:52:45;;;;;;;;;;;24.70;32.00;;;;;;4995183;28;20004;-54
2022/12/15 12:55:11;;;;;;;;;;;24.70;32.10;;;;;;4988867;28;19910;-55
2022/12/15 12:57:40;;;;;;;;;;;24.70;32.20;;;;;;4989339;28;20366;-54
2022/12/15 13:00:12;;;;;;;;;;;24.70;32.00;;;;;;5032671;28;19921;-55
2022/12/15 13:02:39;;;;;;;;;;;24.70;32.10;;;;;;4981075;28;19961;-54
2022/12/15 13:05:24;;;;;;;;;;;24.70;32.10;;;;;;4989103;28;19918;-54
2022/12/15 13:07:54;;;;;;;;;;;24.70;32.00;;;;;;5002339;28;20398;-55
2022/12/15 13:10:20;;;;;;;;;;;24.70;32.00;;;;;;5002239;28;19914;-53
2022/12/15 13:12:52;;;;;;;;;;;24.70;32.00;;;;;;5011334;28;19922;-54
2022/12/15 13:15:27;;;;;;;;;;;24.70;32.00;;;;;;4990266;28;20388;-54
2022/12/15 13:17:53;;;;;;;;;;;24.70;31.90;;;;;;5002870;28;19917;-52
2022/12/15 13:20:26;;;;;;;;;;;24.70;32.00;;;;;;4985874;28;20287;-53
2022/12/15 13:22:52;;;;;;;;;;;24.70;32.10;;;;;;5003427;28;19922;-54
2022/12/15 13:25:32;;;;;;;;;;;24.80;32.00;;;;;;5012902;28;19929;-54
2022/12/15 13:27:58;;;;;;;;;;;24.70;32.10;;;;;;5003261;28;20317;-53
2022/12/15 13:30:24;;;;;;;;;;;24.70;32.20;;;;;;5036690;28;19929;-54
2022/12/15 13:32:53;;;;;;;;;;;24.80;32.20;;;;;;5005598;28;20315;-55
2022/12/15 13:35:22;;;;;;;;;;;24.80;32.20;;;;;;4980350;28;19918;-54
2022/12/15 13:37:49;;;;;;;;;;;24.80;32.10;;;;;;4991127;28;20462;-55
2022/12/15 13:40:33;;;;;;;;;;;24.80;32.20;;;;;;5009041;28;19914;-53
2022/12/15 13:43:05;;;;;;;;;;;24.80;32.20;;;;;;5002465;28;20342;-54
2022/12/15 13:45:31;;;;;;;;;;;24.80;32.10;;;;;;4997784;28;19940;-54
2022/12/15 13:47:57;;;;;;;;;;;24.80;32.20;;;;;;5001911;28;20270;-54
2022/12/15 13:50:29;;;;;;;;;;;24.80;32.50;;;;;;4999138;28;20028;-54
2022/12/15 13:52:55;;;;;;;;;;;24.70;32.60;;;;;;5012106;28;19921;-55
2022/12/15 13:55:21;;;;;;;;;;;24.80;32.70;;;;;;5005025;28;20289;-54
2022/12/15 13:57:51;;;;;;;;;;;24.80;32.70;;;;;;5004883;28;20300;-54
2022/12/15 14:00:17;;;;;;;;;;;24.80;32.70;;;;;;5012479;28;19953;-55
2022/12/15 14:02:43;;;;;;;;;;;24.80;32.70;;;;;;5010014;28;21887;-55
2022/12/15 14:05:13;;;;;;;;;;;24.90;32.70;;;;;;4990925;28;20019;-55
2022/12/15 14:07:39;;;;;;;;;;;24.90;32.60;;;;;;5006369;28;19917;-55
2022/12/15 14:10:05;;;;;;;;;;;24.90;32.70;;;;;;5003417;28;19917;-54
2022/12/15 14:12:30;;;;;;;;;;;24.90;32.80;;;;;;5009542;28;19918;-54
2022/12/15 14:14:56;;;;;;;;;;;24.90;32.70;;;;;;5011521;28;19921;-54
2022/12/15 14:17:21;;;;;;;;;;;24.90;32.70;;;;;;5005918;28;19913;-55
2022/12/15 14:19:47;;;;;;;;;;;24.90;32.80;;;;;;5006514;28;19915;-54
2022/12/15 14:22:31;;;;;;;;;;;24.90;32.80;;;;;;5002147;28;19922;-55
2022/12/15 14:25:12;;;;;;;;;;;24.90;32.80;;;;;;5004787;28;19921;-55
2022/12/15 14:27:37;;;;;;;;;;;24.90;32.80;;;;;;5010373;28;19917;-54
2022/12/15 14:30:10;;;;;;;;;;;25.00;32.70;;;;;;5008741;28;20325;-55
2022/12/15 14:32:35;;;;;;;;;;;25.00;32.90;;;;;;5009933;28;19939;-53
2022/12/15 14:35:00;;;;;;;;;;;25.00;32.90;;;;;;5004256;28;19913;-54
2022/12/15 14:37:26;;;;;;;;;;;25.00;32.70;;;;;;4997137;28;20365;-53
2022/12/15 14:39:51;;;;;;;;;;;24.90;32.90;;;;;;4983981;28;20346;-54
2022/12/15 14:42:17;;;;;;;;;;;24.90;33.10;;;;;;5001568;28;20262;-55
2022/12/15 14:44:44;;;;;;;;;;;24.90;33.10;;;;;;4984448;28;20012;-54
2022/12/15 14:47:21;;;;;;;;;;;24.80;33.50;;;;;;4989465;28;19922;-55
2022/12/15 14:49:47;;;;;;;;;;;24.70;33.40;;;;;;4987858;28;19935;-54
2022/12/15 14:52:18;;;;;;;;;;;24.70;33.60;;;;;;4999986;28;19925;-53
2022/12/15 14:54:56;;;;;;;;;;;24.60;33.60;;;;;;5010461;28;19914;-54
2022/12/15 14:57:26;;;;;;;;;;;24.60;33.70;;;;;;5010429;28;19954;-53
2022/12/15 14:59:52;;;;;;;;;;;24.50;33.60;;;;;;4985853;28;19924;-56
2022/12/15 15:02:18;;;;;;;;;;;24.50;33.60;;;;;;5004846;28;20407;-54
2022/12/15 15:04:53;;;;;;;;;;;24.50;33.60;;;;;;5008290;28;19918;-55
2022/12/15 15:07:18;;;;;;;;;;;24.40;33.60;;;;;;5002693;28;20389;-53
2022/12/15 15:09:44;;;;;;;;;;;24.40;33.70;;;;;;5016044;28;19943;-53
2022/12/15 15:12:12;;;;;;;;;;;24.30;33.80;;;;;;5004373;28;19939;-54
2022/12/15 15:14:38;;;;;;;;;;;24.30;34.00;;;;;;5001744;28;19925;-55
2022/12/15 15:17:04;;;;;;;;;;;24.30;34.10;;;;;;5007747;28;20271;-54
2022/12/15 15:19:30;;;;;;;;;;;24.20;34.00;;;;;;4998238;28;20281;-54
2022/12/15 15:21:57;;;;;;;;;;;24.20;34.10;;;;;;5005928;28;19925;-55
2022/12/15 15:24:24;;;;;;;;;;;24.20;34.20;;;;;;5004458;28;19918;-54
2022/12/15 15:26:49;;;;;;;;;;;24.20;34.10;;;;;;5001801;28;22729;-54
2022/12/15 15:29:30;;;;;;;;;;;24.10;34.10;;;;;;4989117;28;19929;-54
2022/12/15 15:32:14;;;;;;;;;;;24.20;34.20;;;;;;5018993;28;19925;-54
2022/12/15 15:34:40;;;;;;;;;;;24.20;34.00;;;;;;5030804;28;19974;-54
2022/12/15 15:37:11;;;;;;;;;;;24.20;34.10;;;;;;5003247;28;19917;-54
2022/12/15 15:39:36;;;;;;;;;;;24.30;34.00;;;;;;4994983;28;19949;-52
2022/12/15 15:42:10;;;;;;;;;;;24.30;33.70;;;;;;5012342;28;20400;-54
2022/12/15 15:44:35;;;;;;;;;;;24.20;33.90;;;;;;5000945;28;19933;-54
2022/12/15 15:47:00;;;;;;;;;;;24.20;34.00;;;;;;5005464;28;19913;-54
2022/12/15 15:49:26;;;;;;;;;;;24.20;34.00;;;;;;5004175;28;20008;-54
2022/12/15 15:51:53;;;;;;;;;;;24.20;34.00;;;;;;4999287;28;19918;-54
2022/12/15 15:54:21;;;;;;;;;;;24.20;34.00;;;;;;4999560;28;19975;-54
2022/12/15 15:56:46;;;;;;;;;;;24.10;33.90;;;;;;5001546;28;19956;-54
2022/12/15 15:59:15;;;;;;;;;;;24.20;34.00;;;;;;5003551;28;19988;-54
2022/12/15 16:01:45;;;;;;;;;;;24.20;34.00;;;;;;5002780;28;19935;-55
2022/12/15 16:04:11;;;;;;;;;;;24.20;33.90;;;;;;5002077;28;19918;-54
2022/12/15 16:06:36;;;;;;;;;;;24.20;33.90;;;;;;4999353;28;19921;-54
2022/12/15 16:09:02;;;;;;;;;;;24.20;33.90;;;;;;5002252;28;20401;-54
2022/12/15 16:11:27;;;;;;;;;;;24.20;33.80;;;;;;5003081;28;20372;-54
2022/12/15 16:13:53;;;;;;;;;;;24.20;33.80;;;;;;5003822;28;20011;-55
2022/12/15 16:16:20;;;;;;;;;;;24.20;33.80;;;;;;4999034;28;19925;-56
2022/12/15 16:18:45;;;;;;;;;;;24.30;33.80;;;;;;5012589;28;19921;-54
2022/12/15 16:21:14;;;;;;;;;;;24.30;33.80;;;;;;5010586;28;20438;-55
2022/12/15 16:23:40;;;;;;;;;;;24.20;33.70;;;;;;5006569;28;20270;-55
2022/12/15 16:26:07;;;;;;;;;;;24.10;33.80;;;;;;5009205;28;19922;-55
2022/12/15 16:28:32;;;;;;;;;;;24.20;33.80;;;;;;4996846;28;20344;-54
2022/12/15 16:30:58;;;;;;;;;;;24.20;33.90;;;;;;5021002;28;20068;-55
2022/12/15 16:33:23;;;;;;;;;;;24.20;33.80;;;;;;5029463;28;20369;-55
2022/12/15 16:35:49;;;;;;;;;;;24.20;33.90;;;;;;5006649;28;19980;-53
2022/12/15 16:38:16;;;;;;;;;;;24.20;34.00;;;;;;5007951;28;19913;-54
2022/12/15 16:40:41;;;;;;;;;;;24.20;34.10;;;;;;4996481;28;19914;-54
2022/12/15 16:43:14;;;;;;;;;;;24.20;34.10;;;;;;5005020;28;20066;-54
2022/12/15 16:45:39;;;;;;;;;;;24.10;34.10;;;;;;5004766;28;20032;-54